sensor_id;sensor_type;location;lat;lon;timestamp;P1;durP1;ratioP1;P2;durP2;ratioP2
21084;SDS011;34247;50.064;19.970;2023-05-07T00:01:02;5.07;;;3.10;;
21084;SDS011;34247;50.064;19.970;2023-05-07T00:02:09;5.85;;;3.25;;
21084;SDS011;34247;50.064;19.970;2023-05-07T00:03:25;5.53;;;3.78;;
21084;SDS011;34247;50.064;19.970;2023-05-07T00:04:35;6.00;;;3.25;;
21084;SDS011;34247;50.064;19.970;2023-05-07T00:05:43;5.70;;;3.40;;
21084;SDS011;34247;50.064;19.970;2023-05-07T00:06:48;9.73;;;3.33;;
21084;SDS011;34247;50.064;19.970;2023-05-07T00:07:54;7.78;;;3.38;;
21084;SDS011;34247;50.064;19.970;2023-05-07T00:09:01;4.50;;;2.97;;
21084;SDS011;34247;50.064;19.970;2023-05-07T00:10:10;5.30;;;3.22;;
21084;SDS011;34247;50.064;19.970;2023-05-07T00:11:15;4.47;;;2.15;;
21084;SDS011;34247;50.064;19.970;2023-05-07T00:12:20;10.05;;;4.13;;
21084;SDS011;34247;50.064;19.970;2023-05-07T00:13:24;7.53;;;3.40;;
21084;SDS011;34247;50.064;19.970;2023-05-07T00:14:28;9.32;;;3.33;;
21084;SDS011;34247;50.064;19.970;2023-05-07T00:15:34;5.38;;;3.25;;
21084;SDS011;34247;50.064;19.970;2023-05-07T00:16:38;7.45;;;2.33;;
21084;SDS011;34247;50.064;19.970;2023-05-07T00:17:42;4.75;;;2.83;;
21084;SDS011;34247;50.064;19.970;2023-05-07T00:18:49;3.15;;;2.40;;
21084;SDS011;34247;50.064;19.970;2023-05-07T00:19:53;4.63;;;2.67;;
21084;SDS011;34247;50.064;19.970;2023-05-07T00:20:57;6.40;;;3.03;;
21084;SDS011;34247;50.064;19.970;2023-05-07T00:22:01;6.28;;;3.20;;
21084;SDS011;34247;50.064;19.970;2023-05-07T00:23:09;9.85;;;2.83;;
21084;SDS011;34247;50.064;19.970;2023-05-07T00:24:13;8.13;;;3.42;;
21084;SDS011;34247;50.064;19.970;2023-05-07T00:25:18;6.85;;;2.80;;
21084;SDS011;34247;50.064;19.970;2023-05-07T00:26:22;3.70;;;2.42;;
21084;SDS011;34247;50.064;19.970;2023-05-07T00:27:27;10.00;;;3.55;;
21084;SDS011;34247;50.064;19.970;2023-05-07T00:28:31;3.10;;;2.33;;
21084;SDS011;34247;50.064;19.970;2023-05-07T00:29:36;9.00;;;3.47;;
21084;SDS011;34247;50.064;19.970;2023-05-07T00:30:40;5.45;;;3.05;;
21084;SDS011;34247;50.064;19.970;2023-05-07T00:31:44;5.20;;;3.42;;
21084;SDS011;34247;50.064;19.970;2023-05-07T00:32:48;4.68;;;2.88;;
21084;SDS011;34247;50.064;19.970;2023-05-07T00:33:53;5.43;;;2.88;;
21084;SDS011;34247;50.064;19.970;2023-05-07T00:34:57;3.58;;;2.80;;
21084;SDS011;34247;50.064;19.970;2023-05-07T00:36:02;5.63;;;3.05;;
21084;SDS011;34247;50.064;19.970;2023-05-07T00:37:07;5.57;;;3.15;;
21084;SDS011;34247;50.064;19.970;2023-05-07T00:38:12;6.68;;;3.40;;
21084;SDS011;34247;50.064;19.970;2023-05-07T00:39:16;2.97;;;2.53;;
21084;SDS011;34247;50.064;19.970;2023-05-07T00:40:20;9.43;;;2.75;;
21084;SDS011;34247;50.064;19.970;2023-05-07T00:41:24;5.72;;;3.13;;
21084;SDS011;34247;50.064;19.970;2023-05-07T00:42:29;6.40;;;2.95;;
21084;SDS011;34247;50.064;19.970;2023-05-07T00:43:35;4.90;;;3.58;;
21084;SDS011;34247;50.064;19.970;2023-05-07T00:44:39;5.50;;;3.15;;
21084;SDS011;34247;50.064;19.970;2023-05-07T00:45:43;5.55;;;2.70;;
21084;SDS011;34247;50.064;19.970;2023-05-07T00:46:47;6.75;;;3.20;;
21084;SDS011;34247;50.064;19.970;2023-05-07T00:47:55;5.03;;;3.50;;
21084;SDS011;34247;50.064;19.970;2023-05-07T00:49:07;5.65;;;2.42;;
21084;SDS011;34247;50.064;19.970;2023-05-07T00:50:12;3.42;;;2.28;;
21084;SDS011;34247;50.064;19.970;2023-05-07T00:51:17;6.50;;;3.70;;
21084;SDS011;34247;50.064;19.970;2023-05-07T00:52:21;4.72;;;2.53;;
21084;SDS011;34247;50.064;19.970;2023-05-07T00:53:29;6.55;;;2.80;;
21084;SDS011;34247;50.064;19.970;2023-05-07T00:54:34;5.40;;;3.13;;
21084;SDS011;34247;50.064;19.970;2023-05-07T00:55:39;5.38;;;3.05;;
21084;SDS011;34247;50.064;19.970;2023-05-07T00:56:47;4.28;;;3.08;;
21084;SDS011;34247;50.064;19.970;2023-05-07T00:57:51;5.50;;;2.45;;
21084;SDS011;34247;50.064;19.970;2023-05-07T00:58:55;5.13;;;3.25;;
21084;SDS011;34247;50.064;19.970;2023-05-07T00:59:59;5.53;;;3.13;;
21084;SDS011;34247;50.064;19.970;2023-05-07T01:01:06;3.25;;;1.98;;
21084;SDS011;34247;50.064;19.970;2023-05-07T01:02:11;7.47;;;3.92;;
21084;SDS011;34247;50.064;19.970;2023-05-07T01:03:15;5.00;;;3.42;;
21084;SDS011;34247;50.064;19.970;2023-05-07T01:04:19;4.43;;;2.90;;
21084;SDS011;34247;50.064;19.970;2023-05-07T01:05:24;7.15;;;3.45;;
21084;SDS011;34247;50.064;19.970;2023-05-07T01:06:31;4.18;;;3.72;;
21084;SDS011;34247;50.064;19.970;2023-05-07T01:07:37;3.90;;;3.38;;
21084;SDS011;34247;50.064;19.970;2023-05-07T01:08:45;5.97;;;2.83;;
21084;SDS011;34247;50.064;19.970;2023-05-07T01:09:50;5.00;;;3.08;;
21084;SDS011;34247;50.064;19.970;2023-05-07T01:10:58;6.82;;;3.28;;
21084;SDS011;34247;50.064;19.970;2023-05-07T01:12:03;5.65;;;3.28;;
21084;SDS011;34247;50.064;19.970;2023-05-07T01:13:12;4.03;;;3.05;;
21084;SDS011;34247;50.064;19.970;2023-05-07T01:14:18;4.03;;;3.00;;
21084;SDS011;34247;50.064;19.970;2023-05-07T01:15:23;6.20;;;3.17;;
21084;SDS011;34247;50.064;19.970;2023-05-07T01:16:27;8.88;;;4.45;;
21084;SDS011;34247;50.064;19.970;2023-05-07T01:17:41;8.15;;;3.80;;
21084;SDS011;34247;50.064;19.970;2023-05-07T01:18:46;4.20;;;3.25;;
21084;SDS011;34247;50.064;19.970;2023-05-07T01:19:51;3.15;;;2.40;;
21084;SDS011;34247;50.064;19.970;2023-05-07T01:20:57;2.80;;;2.38;;
21084;SDS011;34247;50.064;19.970;2023-05-07T01:22:07;7.00;;;4.25;;
21084;SDS011;34247;50.064;19.970;2023-05-07T01:23:18;4.82;;;2.47;;
21084;SDS011;34247;50.064;19.970;2023-05-07T01:24:22;4.47;;;3.53;;
21084;SDS011;34247;50.064;19.970;2023-05-07T01:25:26;7.55;;;3.42;;
21084;SDS011;34247;50.064;19.970;2023-05-07T01:26:31;10.18;;;4.18;;
21084;SDS011;34247;50.064;19.970;2023-05-07T01:27:35;6.97;;;3.55;;
21084;SDS011;34247;50.064;19.970;2023-05-07T01:28:40;11.68;;;4.18;;
21084;SDS011;34247;50.064;19.970;2023-05-07T01:29:44;6.43;;;3.40;;
21084;SDS011;34247;50.064;19.970;2023-05-07T01:30:51;5.07;;;2.65;;
21084;SDS011;34247;50.064;19.970;2023-05-07T01:32:02;5.78;;;3.65;;
21084;SDS011;34247;50.064;19.970;2023-05-07T01:33:12;14.85;;;4.78;;
21084;SDS011;34247;50.064;19.970;2023-05-07T01:34:21;7.47;;;3.38;;
21084;SDS011;34247;50.064;19.970;2023-05-07T01:35:29;8.13;;;4.10;;
21084;SDS011;34247;50.064;19.970;2023-05-07T01:36:41;6.38;;;4.30;;
21084;SDS011;34247;50.064;19.970;2023-05-07T01:37:47;7.50;;;4.70;;
21084;SDS011;34247;50.064;19.970;2023-05-07T01:38:52;8.77;;;4.65;;
21084;SDS011;34247;50.064;19.970;2023-05-07T01:39:57;8.85;;;4.38;;
21084;SDS011;34247;50.064;19.970;2023-05-07T01:41:02;14.00;;;4.65;;
21084;SDS011;34247;50.064;19.970;2023-05-07T01:42:09;11.57;;;3.95;;
21084;SDS011;34247;50.064;19.970;2023-05-07T01:43:14;8.48;;;4.63;;
21084;SDS011;34247;50.064;19.970;2023-05-07T01:44:18;5.10;;;3.78;;
21084;SDS011;34247;50.064;19.970;2023-05-07T01:45:23;6.53;;;3.20;;
21084;SDS011;34247;50.064;19.970;2023-05-07T01:46:28;6.80;;;3.22;;
21084;SDS011;34247;50.064;19.970;2023-05-07T01:47:35;6.35;;;2.97;;
21084;SDS011;34247;50.064;19.970;2023-05-07T01:48:40;11.50;;;3.53;;
21084;SDS011;34247;50.064;19.970;2023-05-07T01:49:48;9.32;;;3.85;;
21084;SDS011;34247;50.064;19.970;2023-05-07T01:50:54;9.65;;;4.60;;
21084;SDS011;34247;50.064;19.970;2023-05-07T01:51:58;6.38;;;3.92;;
21084;SDS011;34247;50.064;19.970;2023-05-07T01:53:03;4.40;;;3.42;;
21084;SDS011;34247;50.064;19.970;2023-05-07T01:54:07;6.50;;;4.13;;
21084;SDS011;34247;50.064;19.970;2023-05-07T01:55:11;3.72;;;3.20;;
21084;SDS011;34247;50.064;19.970;2023-05-07T01:56:19;6.25;;;3.97;;
21084;SDS011;34247;50.064;19.970;2023-05-07T01:57:24;10.52;;;4.15;;
21084;SDS011;34247;50.064;19.970;2023-05-07T01:58:28;7.05;;;4.00;;
21084;SDS011;34247;50.064;19.970;2023-05-07T01:59:32;5.13;;;3.85;;
21084;SDS011;34247;50.064;19.970;2023-05-07T09:28:03;2.60;;;1.30;;
21084;SDS011;34247;50.064;19.970;2023-05-07T09:29:15;2.20;;;1.58;;
21084;SDS011;34247;50.064;19.970;2023-05-07T09:30:21;1.20;;;1.20;;
21084;SDS011;34247;50.064;19.970;2023-05-07T09:31:25;1.65;;;1.55;;
21084;SDS011;34247;50.064;19.970;2023-05-07T09:32:28;1.27;;;1.27;;
21084;SDS011;34247;50.064;19.970;2023-05-07T09:33:34;1.70;;;1.60;;
21084;SDS011;34247;50.064;19.970;2023-05-07T09:34:38;2.78;;;1.70;;
21084;SDS011;34247;50.064;19.970;2023-05-07T09:35:43;1.38;;;1.35;;
21084;SDS011;34247;50.064;19.970;2023-05-07T09:36:47;1.88;;;1.77;;
21084;SDS011;34247;50.064;19.970;2023-05-07T09:37:51;1.63;;;1.42;;
21084;SDS011;34247;50.064;19.970;2023-05-07T09:39:01;1.45;;;1.42;;
21084;SDS011;34247;50.064;19.970;2023-05-07T09:40:19;1.50;;;1.45;;
21084;SDS011;34247;50.064;19.970;2023-05-07T09:41:29;1.10;;;1.10;;
21084;SDS011;34247;50.064;19.970;2023-05-07T09:42:35;1.38;;;1.38;;
21084;SDS011;34247;50.064;19.970;2023-05-07T09:43:39;1.40;;;1.30;;
21084;SDS011;34247;50.064;19.970;2023-05-07T09:44:44;1.60;;;1.52;;
21084;SDS011;34247;50.064;19.970;2023-05-07T09:45:51;1.75;;;1.63;;
21084;SDS011;34247;50.064;19.970;2023-05-07T09:46:55;1.48;;;1.38;;
21084;SDS011;34247;50.064;19.970;2023-05-07T09:48:04;2.15;;;1.50;;
21084;SDS011;34247;50.064;19.970;2023-05-07T09:49:11;1.50;;;1.50;;
21084;SDS011;34247;50.064;19.970;2023-05-07T09:50:27;1.80;;;1.70;;
21084;SDS011;34247;50.064;19.970;2023-05-07T09:51:39;8.57;;;2.03;;
21084;SDS011;34247;50.064;19.970;2023-05-07T09:52:52;2.40;;;1.70;;
21084;SDS011;34247;50.064;19.970;2023-05-07T09:54:00;2.45;;;1.42;;
21084;SDS011;34247;50.064;19.970;2023-05-07T09:55:07;2.10;;;2.00;;
21084;SDS011;34247;50.064;19.970;2023-05-07T09:56:14;1.25;;;1.23;;
21084;SDS011;34247;50.064;19.970;2023-05-07T09:57:20;1.73;;;1.63;;
21084;SDS011;34247;50.064;19.970;2023-05-07T09:58:27;2.00;;;1.45;;
21084;SDS011;34247;50.064;19.970;2023-05-07T09:59:32;3.22;;;2.03;;
21084;SDS011;34247;50.064;19.970;2023-05-07T10:00:39;1.50;;;1.40;;
21084;SDS011;34247;50.064;19.970;2023-05-07T10:01:45;1.63;;;1.52;;
21084;SDS011;34247;50.064;19.970;2023-05-07T10:02:53;1.42;;;1.33;;
21084;SDS011;34247;50.064;19.970;2023-05-07T10:04:03;1.30;;;1.25;;
21084;SDS011;34247;50.064;19.970;2023-05-07T10:05:10;1.33;;;1.33;;
21084;SDS011;34247;50.064;19.970;2023-05-07T10:06:20;1.30;;;1.30;;
21084;SDS011;34247;50.064;19.970;2023-05-07T10:07:27;1.30;;;1.30;;
21084;SDS011;34247;50.064;19.970;2023-05-07T10:08:32;2.38;;;2.17;;
21084;SDS011;34247;50.064;19.970;2023-05-07T10:09:38;1.50;;;1.45;;
21084;SDS011;34247;50.064;19.970;2023-05-07T10:10:45;1.38;;;1.30;;
21084;SDS011;34247;50.064;19.970;2023-05-07T10:11:50;2.85;;;2.03;;
21084;SDS011;34247;50.064;19.970;2023-05-07T10:12:56;1.80;;;1.70;;
21084;SDS011;34247;50.064;19.970;2023-05-07T10:14:04;2.25;;;2.05;;
21084;SDS011;34247;50.064;19.970;2023-05-07T10:15:09;1.55;;;1.45;;
21084;SDS011;34247;50.064;19.970;2023-05-07T10:16:15;1.33;;;1.23;;
21084;SDS011;34247;50.064;19.970;2023-05-07T10:17:20;1.40;;;1.30;;
21084;SDS011;34247;50.064;19.970;2023-05-07T10:18:26;2.70;;;1.42;;
21084;SDS011;34247;50.064;19.970;2023-05-07T10:19:35;1.92;;;1.80;;
21084;SDS011;34247;50.064;19.970;2023-05-07T10:20:44;1.65;;;1.55;;
21084;SDS011;34247;50.064;19.970;2023-05-07T10:21:53;2.15;;;1.50;;
21084;SDS011;34247;50.064;19.970;2023-05-07T10:23:04;1.30;;;1.30;;
21084;SDS011;34247;50.064;19.970;2023-05-07T10:24:09;1.67;;;1.58;;
21084;SDS011;34247;50.064;19.970;2023-05-07T10:25:28;1.85;;;1.75;;
21084;SDS011;34247;50.064;19.970;2023-05-07T10:26:34;1.65;;;1.55;;
21084;SDS011;34247;50.064;19.970;2023-05-07T10:27:40;1.30;;;1.30;;
21084;SDS011;34247;50.064;19.970;2023-05-07T10:28:48;2.05;;;1.88;;
21084;SDS011;34247;50.064;19.970;2023-05-07T10:33:13;1.38;;;1.38;;
21084;SDS011;34247;50.064;19.970;2023-05-07T10:34:24;1.58;;;1.50;;
21084;SDS011;34247;50.064;19.970;2023-05-07T10:35:38;1.48;;;1.40;;
21084;SDS011;34247;50.064;19.970;2023-05-07T10:36:49;1.70;;;1.60;;
21084;SDS011;34247;50.064;19.970;2023-05-07T10:37:55;3.22;;;1.80;;
21084;SDS011;34247;50.064;19.970;2023-05-07T10:38:59;1.73;;;1.63;;
21084;SDS011;34247;50.064;19.970;2023-05-07T10:40:03;1.90;;;1.80;;
21084;SDS011;34247;50.064;19.970;2023-05-07T10:41:09;2.17;;;2.05;;
21084;SDS011;34247;50.064;19.970;2023-05-07T10:42:14;2.13;;;2.03;;
21084;SDS011;34247;50.064;19.970;2023-05-07T10:43:21;1.67;;;1.58;;
21084;SDS011;34247;50.064;19.970;2023-05-07T10:44:28;1.30;;;1.20;;
21084;SDS011;34247;50.064;19.970;2023-05-07T10:45:32;1.67;;;1.58;;
21084;SDS011;34247;50.064;19.970;2023-05-07T10:46:36;2.83;;;1.95;;
21084;SDS011;34247;50.064;19.970;2023-05-07T10:49:31;2.22;;;2.13;;
21084;SDS011;34247;50.064;19.970;2023-05-07T10:50:36;7.03;;;2.00;;
21084;SDS011;34247;50.064;19.970;2023-05-07T10:53:20;2.72;;;2.03;;
21084;SDS011;34247;50.064;19.970;2023-05-07T10:54:40;1.90;;;1.80;;
21084;SDS011;34247;50.064;19.970;2023-05-07T10:55:48;2.13;;;1.67;;
21084;SDS011;34247;50.064;19.970;2023-05-07T10:56:55;3.72;;;2.03;;
21084;SDS011;34247;50.064;19.970;2023-05-07T10:58:17;3.10;;;1.75;;
21084;SDS011;34247;50.064;19.970;2023-05-07T10:59:35;2.75;;;1.42;;
21084;SDS011;34247;50.064;19.970;2023-05-07T11:00:45;1.48;;;1.38;;
21084;SDS011;34247;50.064;19.970;2023-05-07T11:01:50;1.85;;;1.60;;
21084;SDS011;34247;50.064;19.970;2023-05-07T11:04:15;1.67;;;1.58;;
21084;SDS011;34247;50.064;19.970;2023-05-07T11:05:34;2.92;;;2.50;;
21084;SDS011;34247;50.064;19.970;2023-05-07T11:06:40;2.67;;;2.17;;
21084;SDS011;34247;50.064;19.970;2023-05-07T11:07:50;1.60;;;1.50;;
21084;SDS011;34247;50.064;19.970;2023-05-07T11:08:59;1.30;;;1.25;;
21084;SDS011;34247;50.064;19.970;2023-05-07T11:10:03;1.95;;;1.85;;
21084;SDS011;34247;50.064;19.970;2023-05-07T11:11:10;1.83;;;1.73;;
21084;SDS011;34247;50.064;19.970;2023-05-07T11:13:46;1.38;;;1.33;;
21084;SDS011;34247;50.064;19.970;2023-05-07T11:14:52;1.98;;;1.88;;
21084;SDS011;34247;50.064;19.970;2023-05-07T11:15:58;1.85;;;1.70;;
21084;SDS011;34247;50.064;19.970;2023-05-07T11:17:02;1.92;;;1.63;;
21084;SDS011;34247;50.064;19.970;2023-05-07T11:18:11;1.38;;;1.38;;
21084;SDS011;34247;50.064;19.970;2023-05-07T11:19:47;1.75;;;1.65;;
21084;SDS011;34247;50.064;19.970;2023-05-07T11:20:57;1.20;;;1.20;;
21084;SDS011;34247;50.064;19.970;2023-05-07T11:22:02;2.05;;;1.55;;
21084;SDS011;34247;50.064;19.970;2023-05-07T11:24:39;2.35;;;1.50;;
21084;SDS011;34247;50.064;19.970;2023-05-07T11:25:45;1.20;;;1.20;;
21084;SDS011;34247;50.064;19.970;2023-05-07T11:26:49;1.30;;;1.20;;
21084;SDS011;34247;50.064;19.970;2023-05-07T11:28:09;1.60;;;1.45;;
21084;SDS011;34247;50.064;19.970;2023-05-07T11:29:16;2.65;;;1.77;;
21084;SDS011;34247;50.064;19.970;2023-05-07T11:30:24;1.67;;;1.45;;
21084;SDS011;34247;50.064;19.970;2023-05-07T11:31:29;1.80;;;1.70;;
21084;SDS011;34247;50.064;19.970;2023-05-07T11:32:33;2.25;;;2.08;;
21084;SDS011;34247;50.064;19.970;2023-05-07T11:33:37;1.30;;;1.20;;
21084;SDS011;34247;50.064;19.970;2023-05-07T11:34:41;1.05;;;1.05;;
21084;SDS011;34247;50.064;19.970;2023-05-07T11:35:48;5.88;;;1.65;;
21084;SDS011;34247;50.064;19.970;2023-05-07T11:36:55;1.30;;;1.30;;
21084;SDS011;34247;50.064;19.970;2023-05-07T11:38:08;1.63;;;1.50;;
21084;SDS011;34247;50.064;19.970;2023-05-07T11:39:33;1.48;;;1.45;;
21084;SDS011;34247;50.064;19.970;2023-05-07T11:40:51;1.75;;;1.65;;
21084;SDS011;34247;50.064;19.970;2023-05-07T11:42:02;1.48;;;1.38;;
21084;SDS011;34247;50.064;19.970;2023-05-07T11:43:10;1.75;;;1.65;;
21084;SDS011;34247;50.064;19.970;2023-05-07T11:44:17;1.30;;;1.30;;
21084;SDS011;34247;50.064;19.970;2023-05-07T11:45:23;1.85;;;1.60;;
21084;SDS011;34247;50.064;19.970;2023-05-07T11:46:33;1.20;;;1.20;;
21084;SDS011;34247;50.064;19.970;2023-05-07T11:47:37;1.58;;;1.48;;
21084;SDS011;34247;50.064;19.970;2023-05-07T11:48:45;2.15;;;1.63;;
21084;SDS011;34247;50.064;19.970;2023-05-07T11:49:50;1.80;;;1.67;;
21084;SDS011;34247;50.064;19.970;2023-05-07T11:51:06;1.98;;;1.77;;
21084;SDS011;34247;50.064;19.970;2023-05-07T11:52:18;2.83;;;1.67;;
21084;SDS011;34247;50.064;19.970;2023-05-07T11:53:26;1.30;;;1.30;;
21084;SDS011;34247;50.064;19.970;2023-05-07T11:54:38;1.35;;;1.30;;
21084;SDS011;34247;50.064;19.970;2023-05-07T11:55:42;1.30;;;1.30;;
21084;SDS011;34247;50.064;19.970;2023-05-07T11:56:50;1.10;;;1.10;;
21084;SDS011;34247;50.064;19.970;2023-05-07T11:57:55;2.22;;;1.67;;
21084;SDS011;34247;50.064;19.970;2023-05-07T11:58:59;1.73;;;1.63;;
21084;SDS011;34247;50.064;19.970;2023-05-07T12:00:03;1.65;;;1.55;;
21084;SDS011;34247;50.064;19.970;2023-05-07T12:01:14;2.15;;;1.90;;
21084;SDS011;34247;50.064;19.970;2023-05-07T12:02:19;1.58;;;1.48;;
21084;SDS011;34247;50.064;19.970;2023-05-07T12:03:24;1.33;;;1.17;;
21084;SDS011;34247;50.064;19.970;2023-05-07T12:04:31;1.27;;;1.27;;
21084;SDS011;34247;50.064;19.970;2023-05-07T12:05:36;1.88;;;1.60;;
21084;SDS011;34247;50.064;19.970;2023-05-07T12:06:43;1.10;;;1.10;;
21084;SDS011;34247;50.064;19.970;2023-05-07T12:07:47;1.80;;;1.70;;
21084;SDS011;34247;50.064;19.970;2023-05-07T12:08:59;1.33;;;1.30;;
21084;SDS011;34247;50.064;19.970;2023-05-07T12:10:06;1.92;;;1.83;;
21084;SDS011;34247;50.064;19.970;2023-05-07T12:11:13;3.65;;;1.77;;
21084;SDS011;34247;50.064;19.970;2023-05-07T12:12:29;1.10;;;1.10;;
21084;SDS011;34247;50.064;19.970;2023-05-07T12:13:33;1.45;;;1.33;;
21084;SDS011;34247;50.064;19.970;2023-05-07T12:14:41;2.10;;;1.45;;
21084;SDS011;34247;50.064;19.970;2023-05-07T12:15:48;2.45;;;1.67;;
21084;SDS011;34247;50.064;19.970;2023-05-07T12:17:01;1.67;;;1.58;;
21084;SDS011;34247;50.064;19.970;2023-05-07T12:18:13;2.53;;;1.45;;
21084;SDS011;34247;50.064;19.970;2023-05-07T12:19:19;1.20;;;1.20;;
21084;SDS011;34247;50.064;19.970;2023-05-07T12:20:25;2.15;;;1.30;;
21084;SDS011;34247;50.064;19.970;2023-05-07T12:21:33;1.52;;;1.45;;
21084;SDS011;34247;50.064;19.970;2023-05-07T12:22:37;2.58;;;2.38;;
21084;SDS011;34247;50.064;19.970;2023-05-07T12:23:42;1.30;;;1.30;;
21084;SDS011;34247;50.064;19.970;2023-05-07T12:24:48;1.45;;;1.35;;
21084;SDS011;34247;50.064;19.970;2023-05-07T12:26:00;2.00;;;1.90;;
21084;SDS011;34247;50.064;19.970;2023-05-07T12:27:08;3.05;;;1.75;;
21084;SDS011;34247;50.064;19.970;2023-05-07T12:28:15;1.67;;;1.58;;
21084;SDS011;34247;50.064;19.970;2023-05-07T12:29:23;1.88;;;1.77;;
21084;SDS011;34247;50.064;19.970;2023-05-07T12:30:28;1.27;;;1.20;;
21084;SDS011;34247;50.064;19.970;2023-05-07T12:31:35;3.03;;;2.05;;
21084;SDS011;34247;50.064;19.970;2023-05-07T12:32:38;1.48;;;1.45;;
21084;SDS011;34247;50.064;19.970;2023-05-07T12:33:45;2.25;;;1.25;;
21084;SDS011;34247;50.064;19.970;2023-05-07T12:34:51;1.30;;;1.25;;
21084;SDS011;34247;50.064;19.970;2023-05-07T12:35:55;1.20;;;1.20;;
21084;SDS011;34247;50.064;19.970;2023-05-07T12:37:01;2.47;;;1.58;;
21084;SDS011;34247;50.064;19.970;2023-05-07T12:38:20;1.95;;;1.40;;
21084;SDS011;34247;50.064;19.970;2023-05-07T12:39:24;1.48;;;1.38;;
21084;SDS011;34247;50.064;19.970;2023-05-07T12:40:35;1.90;;;1.80;;
21084;SDS011;34247;50.064;19.970;2023-05-07T12:41:55;2.63;;;1.83;;
21084;SDS011;34247;50.064;19.970;2023-05-07T12:43:18;1.25;;;1.20;;
21084;SDS011;34247;50.064;19.970;2023-05-07T12:44:31;1.17;;;1.17;;
21084;SDS011;34247;50.064;19.970;2023-05-07T12:45:41;1.20;;;1.20;;
21084;SDS011;34247;50.064;19.970;2023-05-07T12:46:48;1.60;;;1.50;;
21084;SDS011;34247;50.064;19.970;2023-05-07T12:47:56;1.80;;;1.58;;
21084;SDS011;34247;50.064;19.970;2023-05-07T12:49:08;1.67;;;1.55;;
21084;SDS011;34247;50.064;19.970;2023-05-07T12:50:16;1.50;;;1.33;;
21084;SDS011;34247;50.064;19.970;2023-05-07T12:51:25;1.10;;;1.10;;
21084;SDS011;34247;50.064;19.970;2023-05-07T12:52:31;1.45;;;1.42;;
21084;SDS011;34247;50.064;19.970;2023-05-07T12:53:40;2.05;;;1.63;;
21084;SDS011;34247;50.064;19.970;2023-05-07T12:54:50;2.35;;;1.70;;
21084;SDS011;34247;50.064;19.970;2023-05-07T12:55:55;1.67;;;1.58;;
21084;SDS011;34247;50.064;19.970;2023-05-07T12:57:02;1.60;;;1.50;;
21084;SDS011;34247;50.064;19.970;2023-05-07T12:58:15;1.60;;;1.50;;
21084;SDS011;34247;50.064;19.970;2023-05-07T12:59:48;1.75;;;1.65;;
21084;SDS011;34247;50.064;19.970;2023-05-07T13:01:06;1.65;;;1.55;;
21084;SDS011;34247;50.064;19.970;2023-05-07T13:02:13;1.45;;;1.38;;
21084;SDS011;34247;50.064;19.970;2023-05-07T13:04:34;1.23;;;1.23;;
21084;SDS011;34247;50.064;19.970;2023-05-07T13:05:39;1.30;;;1.30;;
21084;SDS011;34247;50.064;19.970;2023-05-07T13:06:48;1.55;;;1.45;;
21084;SDS011;34247;50.064;19.970;2023-05-07T13:07:55;1.42;;;1.33;;
21084;SDS011;34247;50.064;19.970;2023-05-07T13:09:00;1.42;;;1.33;;
21084;SDS011;34247;50.064;19.970;2023-05-07T13:10:26;1.30;;;1.30;;
21084;SDS011;34247;50.064;19.970;2023-05-07T13:11:31;1.88;;;1.77;;
21084;SDS011;34247;50.064;19.970;2023-05-07T13:12:35;1.65;;;1.55;;
21084;SDS011;34247;50.064;19.970;2023-05-07T13:13:42;1.60;;;1.25;;
21084;SDS011;34247;50.064;19.970;2023-05-07T13:14:47;1.92;;;1.80;;
21084;SDS011;34247;50.064;19.970;2023-05-07T13:15:51;2.58;;;1.50;;
21084;SDS011;34247;50.064;19.970;2023-05-07T13:16:55;1.00;;;1.00;;
21084;SDS011;34247;50.064;19.970;2023-05-07T13:17:59;1.60;;;1.30;;
21084;SDS011;34247;50.064;19.970;2023-05-07T13:19:03;1.23;;;1.13;;
21084;SDS011;34247;50.064;19.970;2023-05-07T13:20:10;1.83;;;1.73;;
21084;SDS011;34247;50.064;19.970;2023-05-07T13:21:15;1.42;;;1.33;;
21084;SDS011;34247;50.064;19.970;2023-05-07T13:22:19;1.40;;;1.40;;
21084;SDS011;34247;50.064;19.970;2023-05-07T13:23:27;1.20;;;1.20;;
21084;SDS011;34247;50.064;19.970;2023-05-07T13:24:31;2.40;;;1.30;;
21084;SDS011;34247;50.064;19.970;2023-05-07T13:25:35;1.63;;;1.33;;
21084;SDS011;34247;50.064;19.970;2023-05-07T13:26:41;1.63;;;1.52;;
21084;SDS011;34247;50.064;19.970;2023-05-07T13:27:47;2.35;;;1.63;;
21084;SDS011;34247;50.064;19.970;2023-05-07T13:29:13;1.13;;;1.13;;
21084;SDS011;34247;50.064;19.970;2023-05-07T13:30:18;1.33;;;1.17;;
21084;SDS011;34247;50.064;19.970;2023-05-07T13:31:23;1.20;;;1.20;;
21084;SDS011;34247;50.064;19.970;2023-05-07T13:32:28;1.98;;;1.42;;
21084;SDS011;34247;50.064;19.970;2023-05-07T13:33:33;1.42;;;1.40;;
21084;SDS011;34247;50.064;19.970;2023-05-07T13:34:38;1.65;;;1.55;;
21084;SDS011;34247;50.064;19.970;2023-05-07T13:35:42;1.88;;;1.40;;
21084;SDS011;34247;50.064;19.970;2023-05-07T13:36:47;1.20;;;1.20;;
21084;SDS011;34247;50.064;19.970;2023-05-07T13:37:52;1.35;;;1.35;;
21084;SDS011;34247;50.064;19.970;2023-05-07T13:38:58;2.88;;;1.50;;
21084;SDS011;34247;50.064;19.970;2023-05-07T13:40:07;2.00;;;1.77;;
21084;SDS011;34247;50.064;19.970;2023-05-07T13:41:15;1.25;;;1.23;;
21084;SDS011;34247;50.064;19.970;2023-05-07T13:42:19;2.13;;;1.23;;
21084;SDS011;34247;50.064;19.970;2023-05-07T13:43:24;2.72;;;1.52;;
21084;SDS011;34247;50.064;19.970;2023-05-07T13:44:29;1.25;;;1.23;;
21084;SDS011;34247;50.064;19.970;2023-05-07T13:45:38;1.30;;;1.20;;
21084;SDS011;34247;50.064;19.970;2023-05-07T13:46:44;1.50;;;1.40;;
21084;SDS011;34247;50.064;19.970;2023-05-07T13:47:48;1.10;;;1.10;;
21084;SDS011;34247;50.064;19.970;2023-05-07T13:48:54;1.83;;;1.70;;
21084;SDS011;34247;50.064;19.970;2023-05-07T13:49:57;1.75;;;1.65;;
21084;SDS011;34247;50.064;19.970;2023-05-07T13:51:06;0.93;;;0.93;;
21084;SDS011;34247;50.064;19.970;2023-05-07T13:52:11;1.63;;;1.52;;
21084;SDS011;34247;50.064;19.970;2023-05-07T13:53:15;1.40;;;1.30;;
21084;SDS011;34247;50.064;19.970;2023-05-07T13:54:21;1.50;;;1.42;;
21084;SDS011;34247;50.064;19.970;2023-05-07T13:55:27;1.58;;;1.48;;
21084;SDS011;34247;50.064;19.970;2023-05-07T13:56:32;1.40;;;1.30;;
21084;SDS011;34247;50.064;19.970;2023-05-07T13:57:36;1.25;;;1.23;;
21084;SDS011;34247;50.064;19.970;2023-05-07T13:58:41;1.45;;;1.40;;
21084;SDS011;34247;50.064;19.970;2023-05-07T14:00:02;1.63;;;1.55;;
21084;SDS011;34247;50.064;19.970;2023-05-07T14:01:12;1.42;;;1.35;;
21084;SDS011;34247;50.064;19.970;2023-05-07T14:02:17;2.78;;;1.48;;
21084;SDS011;34247;50.064;19.970;2023-05-07T14:03:27;1.23;;;1.23;;
21084;SDS011;34247;50.064;19.970;2023-05-07T14:04:37;1.60;;;1.50;;
21084;SDS011;34247;50.064;19.970;2023-05-07T14:05:41;2.17;;;1.83;;
21084;SDS011;34247;50.064;19.970;2023-05-07T14:06:46;1.10;;;1.10;;
21084;SDS011;34247;50.064;19.970;2023-05-07T14:07:51;1.52;;;1.42;;
21084;SDS011;34247;50.064;19.970;2023-05-07T14:08:57;1.60;;;1.50;;
21084;SDS011;34247;50.064;19.970;2023-05-07T14:10:05;1.75;;;1.63;;
21084;SDS011;34247;50.064;19.970;2023-05-07T14:11:10;2.35;;;1.48;;
21084;SDS011;34247;50.064;19.970;2023-05-07T14:12:14;1.60;;;1.45;;
21084;SDS011;34247;50.064;19.970;2023-05-07T14:13:19;3.45;;;1.70;;
21084;SDS011;34247;50.064;19.970;2023-05-07T14:14:23;1.80;;;1.70;;
21084;SDS011;34247;50.064;19.970;2023-05-07T14:15:32;1.85;;;1.67;;
21084;SDS011;34247;50.064;19.970;2023-05-07T14:16:36;1.60;;;1.50;;
21084;SDS011;34247;50.064;19.970;2023-05-07T14:17:41;1.95;;;1.52;;
21084;SDS011;34247;50.064;19.970;2023-05-07T14:18:47;1.85;;;1.67;;